Time;durP1;ratioP1;P1;durP2;ratioP2;P2;SDS_P1;SDS_P2;PMS_P1;PMS_P2;Temp;Humidity;BMP_temperature;BMP_pressure;BME280_temperature;BME280_humidity;BME280_pressure;Samples;Min_cycle;Max_cycle;Signal;HPM_P1;HPM_P2
2021/04/29 00:01:04;;;;;;;3.10;1.77;;;10.70;48.20;;;;;;5014967;28;20033;-75
2021/04/29 00:03:30;;;;;;;2.55;1.88;;;10.70;48.30;;;;;;5014996;28;20026;-74
2021/04/29 00:05:55;;;;;;;1.95;1.45;;;10.60;48.30;;;;;;5014912;28;20068;-75
2021/04/29 00:08:21;;;;;;;2.08;1.73;;;10.60;48.40;;;;;;5030088;28;20022;-75
2021/04/29 00:10:47;;;;;;;1.60;1.33;;;10.60;48.50;;;;;;5014433;28;20117;-76
2021/04/29 00:13:12;;;;;;;2.10;1.77;;;10.60;48.50;;;;;;5014747;28;20026;-75
2021/04/29 00:15:38;;;;;;;1.60;1.50;;;10.60;48.50;;;;;;5014628;28;20030;-75
2021/04/29 00:18:04;;;;;;;1.67;1.23;;;10.60;48.60;;;;;;5014381;28;20045;-74
2021/04/29 00:20:30;;;;;;;1.48;1.23;;;10.50;48.60;;;;;;5014643;28;20121;-74
2021/04/29 00:22:55;;;;;;;1.85;1.42;;;10.60;48.70;;;;;;5029942;28;20385;-74
2021/04/29 00:25:21;;;;;;;1.50;1.40;;;10.50;48.70;;;;;;5014076;28;20038;-75
2021/04/29 00:27:46;;;;;;;1.80;1.50;;;10.50;48.70;;;;;;5014507;28;20025;-75
2021/04/29 00:30:12;;;;;;;1.77;1.40;;;10.50;48.80;;;;;;5014514;28;20498;-75
2021/04/29 00:32:38;;;;;;;1.45;1.20;;;10.40;48.80;;;;;;5014418;28;20034;-75
2021/04/29 00:35:05;;;;;;;2.05;1.80;;;10.40;48.90;;;;;;5014666;28;20367;-75
2021/04/29 00:37:31;;;;;;;2.35;1.80;;;10.40;49.00;;;;;;5029598;28;20018;-75
2021/04/29 00:39:56;;;;;;;1.90;1.70;;;10.40;49.70;;;;;;5013783;28;20080;-74
2021/04/29 00:42:22;;;;;;;2.95;1.83;;;10.30;49.20;;;;;;5014193;28;20021;-74
2021/04/29 00:44:47;;;;;;;3.08;1.98;;;10.30;49.30;;;;;;5014173;28;20116;-75
2021/04/29 00:47:13;;;;;;;1.65;1.55;;;10.20;49.40;;;;;;5014242;28;20105;-76
2021/04/29 00:49:39;;;;;;;2.03;1.73;;;10.20;49.50;;;;;;5020780;28;20029;-75
2021/04/29 00:52:05;;;;;;;1.35;1.20;;;10.20;49.50;;;;;;5033591;28;20033;-76
2021/04/29 00:54:30;;;;;;;1.88;1.45;;;10.20;49.60;;;;;;5033218;28;20075;-75
2021/04/29 00:56:56;;;;;;;2.00;1.48;;;10.20;49.70;;;;;;5032395;28;20061;-75
2021/04/29 00:59:21;;;;;;;2.08;1.88;;;10.20;49.70;;;;;;5033739;28;20026;-75
2021/04/29 01:01:54;;;;;;;2.10;1.90;;;10.20;49.80;;;;;;5032394;28;20021;-74
2021/04/29 01:04:35;;;;;;;2.42;1.63;;;10.20;49.90;;;;;;5033700;28;20072;-74
2021/04/29 01:07:11;;;;;;;1.58;1.48;;;10.20;50.00;;;;;;5033694;28;20022;-75
2021/04/29 01:10:08;;;;;;;1.80;1.38;;;10.20;50.00;;;;;;5033160;28;20040;-75
2021/04/29 01:12:49;;;;;;;1.88;1.55;;;10.20;50.00;;;;;;5031433;28;20029;-76
2021/04/29 01:15:16;;;;;;;2.70;1.67;;;10.10;50.10;;;;;;5033554;28;20421;-76
2021/04/29 01:17:45;;;;;;;2.05;1.55;;;10.10;50.20;;;;;;5033498;28;20025;-76
2021/04/29 01:20:20;;;;;;;1.88;1.77;;;10.00;50.30;;;;;;5032311;28;20022;-76
2021/04/29 01:22:59;;;;;;;1.00;1.00;;;10.00;50.50;;;;;;5033034;28;20022;-74
2021/04/29 01:25:28;;;;;;;2.00;1.52;;;9.90;50.60;;;;;;5033299;28;20470;-74
2021/04/29 01:27:54;;;;;;;2.08;1.80;;;9.80;50.60;;;;;;5033167;28;20026;-75
2021/04/29 01:30:20;;;;;;;1.60;1.50;;;9.80;50.80;;;;;;5032746;28;20026;-75
2021/04/29 01:32:46;;;;;;;2.13;1.40;;;9.70;50.90;;;;;;5033163;28;20386;-75
2021/04/29 01:35:13;;;;;;;1.45;1.30;;;9.60;51.00;;;;;;5033237;28;20029;-75
2021/04/29 01:37:39;;;;;;;3.17;1.60;;;9.60;51.20;;;;;;5032665;28;20021;-74
2021/04/29 01:40:08;;;;;;;2.40;1.70;;;9.60;51.40;;;;;;5033127;28;20113;-75
2021/04/29 01:42:34;;;;;;;1.95;1.73;;;9.50;51.50;;;;;;5033234;28;20533;-76
2021/04/29 01:45:00;;;;;;;1.98;1.55;;;9.40;51.50;;;;;;5033015;28;20036;-75
2021/04/29 01:47:26;;;;;;;1.50;1.40;;;9.40;51.60;;;;;;5033017;28;20100;-75
2021/04/29 01:49:52;;;;;;;2.13;1.55;;;9.40;51.70;;;;;;5033355;28;20104;-75
2021/04/29 01:52:18;;;;;;;1.52;1.13;;;9.40;51.80;;;;;;5032530;28;20558;-75
2021/04/29 01:54:43;;;;;;;2.75;1.90;;;9.40;51.90;;;;;;5033066;28;20112;-75
2021/04/29 01:57:09;;;;;;;2.67;1.90;;;9.30;51.80;;;;;;5032807;28;20042;-75
2021/04/29 01:59:34;;;;;;;1.83;1.60;;;9.30;52.00;;;;;;5033012;28;20091;-76
2021/04/29 02:02:00;;;;;;;1.42;1.30;;;9.30;52.10;;;;;;5032857;28;20056;-75
2021/04/29 02:04:26;;;;;;;2.08;1.50;;;9.30;52.10;;;;;;5033046;28;20039;-75
2021/04/29 02:06:51;;;;;;;2.42;2.05;;;9.20;52.10;;;;;;5032466;28;20083;-75
2021/04/29 02:09:17;;;;;;;2.15;1.50;;;9.20;52.20;;;;;;5032802;28;20021;-75
2021/04/29 02:11:58;;;;;;;2.15;1.52;;;9.20;52.30;;;;;;5032970;28;20093;-75
2021/04/29 02:14:39;;;;;;;1.40;1.30;;;9.20;52.40;;;;;;5032856;28;20033;-75
2021/04/29 02:17:27;;;;;;;2.80;1.60;;;9.20;52.40;;;;;;5032842;28;20041;-76
2021/04/29 02:19:55;;;;;;;1.90;1.80;;;9.20;52.40;;;;;;5032852;28;20530;-73
2021/04/29 02:22:24;;;;;;;1.73;1.50;;;9.20;52.50;;;;;;5032380;28;20033;-76
2021/04/29 02:24:53;;;;;;;1.03;0.97;;;9.30;52.50;;;;;;5032697;28;20025;-75
2021/04/29 02:27:18;;;;;;;1.70;1.30;;;9.20;52.60;;;;;;5032711;28;20025;-75
2021/04/29 02:29:44;;;;;;;2.08;1.48;;;9.20;52.60;;;;;;5032560;28;20476;-76
2021/04/29 02:32:10;;;;;;;1.13;1.00;;;9.20;52.70;;;;;;5032757;28;20021;-76
2021/04/29 02:34:36;;;;;;;1.38;1.17;;;9.30;52.80;;;;;;5032714;28;20076;-76
2021/04/29 02:37:02;;;;;;;1.30;1.20;;;9.30;52.80;;;;;;5032261;28;20497;-75
2021/04/29 02:39:30;;;;;;;3.33;1.27;;;9.30;52.80;;;;;;5032656;28;20026;-74
2021/04/29 02:41:56;;;;;;;1.48;1.25;;;9.30;52.80;;;;;;5036359;28;20021;-74
2021/04/29 02:44:22;;;;;;;2.92;1.70;;;9.30;52.80;;;;;;5036113;28;20059;-75
2021/04/29 02:46:47;;;;;;;1.77;1.42;;;9.30;52.90;;;;;;5036258;28;20025;-75
2021/04/29 02:49:13;;;;;;;1.35;1.25;;;9.30;52.90;;;;;;5034595;28;20025;-75
2021/04/29 02:51:39;;;;;;;1.40;1.25;;;9.30;52.90;;;;;;5019192;28;20022;-75
2021/04/29 02:54:09;;;;;;;1.92;1.20;;;9.30;53.10;;;;;;5016369;28;20040;-75
2021/04/29 02:56:43;;;;;;;1.70;1.35;;;9.30;53.20;;;;;;5031383;28;20065;-75
2021/04/29 02:59:11;;;;;;;2.10;1.40;;;9.30;53.30;;;;;;5016244;28;20029;-74
2021/04/29 03:01:36;;;;;;;1.52;1.30;;;9.30;53.50;;;;;;5031258;28;20025;-74
2021/04/29 03:04:03;;;;;;;1.67;1.48;;;9.30;53.50;;;;;;5015690;28;20034;-75
2021/04/29 03:06:29;;;;;;;1.85;1.30;;;9.30;53.50;;;;;;5016134;28;20026;-75
2021/04/29 03:08:55;;;;;;;1.95;1.40;;;9.30;53.50;;;;;;5015983;28;20056;-74
2021/04/29 03:11:21;;;;;;;2.63;1.73;;;9.30;53.50;;;;;;5016081;28;20062;-75
2021/04/29 03:13:46;;;;;;;2.35;2.15;;;9.40;53.60;;;;;;5016056;28;20040;-74
2021/04/29 03:16:12;;;;;;;3.03;2.08;;;9.40;53.60;;;;;;5031117;28;20033;-76
2021/04/29 03:18:38;;;;;;;1.33;1.23;;;9.40;53.70;;;;;;5015486;28;20486;-75
2021/04/29 03:21:04;;;;;;;1.58;1.48;;;9.40;53.70;;;;;;5015807;28;20026;-75
2021/04/29 03:23:30;;;;;;;1.73;1.60;;;9.40;53.80;;;;;;5015897;28;20026;-75
2021/04/29 03:25:55;;;;;;;1.63;1.45;;;9.40;53.80;;;;;;5015801;28;20021;-75
2021/04/29 03:28:21;;;;;;;1.40;1.13;;;9.40;53.80;;;;;;5015870;28;20531;-74
2021/04/29 03:30:46;;;;;;;2.45;1.70;;;9.50;53.80;;;;;;5030893;28;20117;-74
2021/04/29 03:33:12;;;;;;;2.00;1.90;;;9.50;53.80;;;;;;5015157;28;20028;-74
2021/04/29 03:35:38;;;;;;;1.60;1.50;;;9.50;53.90;;;;;;5015417;28;20359;-74
2021/04/29 03:38:03;;;;;;;1.83;1.15;;;9.40;53.90;;;;;;5015539;28;20415;-75
2021/04/29 03:40:29;;;;;;;1.15;1.10;;;9.50;53.90;;;;;;5015506;28;20030;-74
2021/04/29 03:42:55;;;;;;;3.15;1.20;;;9.50;53.90;;;;;;5015448;28;20033;-75
2021/04/29 03:45:22;;;;;;;2.35;1.42;;;9.50;53.80;;;;;;5015337;28;20129;-75
2021/04/29 03:47:48;;;;;;;2.30;2.10;;;9.60;53.80;;;;;;5014766;28;20061;-75
2021/04/29 03:50:14;;;;;;;2.03;1.85;;;9.60;53.80;;;;;;5015308;28;20053;-75
2021/04/29 03:52:39;;;;;;;1.80;1.40;;;9.60;53.90;;;;;;5014546;28;20497;-74
2021/04/29 03:55:06;;;;;;;2.33;1.70;;;9.60;54.00;;;;;;5015187;28;20485;-75
2021/04/29 03:57:31;;;;;;;3.10;1.42;;;9.60;54.10;;;;;;5015016;28;20120;-75
2021/04/29 03:59:57;;;;;;;1.88;1.63;;;9.60;54.20;;;;;;5015375;28;20057;-75
2021/04/29 04:02:22;;;;;;;2.13;1.83;;;9.60;54.20;;;;;;5014695;28;20117;-75
2021/04/29 04:04:48;;;;;;;2.40;1.55;;;9.60;54.20;;;;;;5015030;28;20045;-75
2021/04/29 04:07:14;;;;;;;1.95;1.83;;;9.50;54.30;;;;;;5015088;28;20022;-74
2021/04/29 04:09:39;;;;;;;2.47;1.85;;;9.50;54.40;;;;;;5015007;28;20032;-74
2021/04/29 04:12:06;;;;;;;2.83;1.88;;;9.40;54.60;;;;;;5030223;28;20018;-75
2021/04/29 04:14:31;;;;;;;2.50;1.80;;;9.40;54.90;;;;;;5014875;28;20029;-74
2021/04/29 04:16:57;;;;;;;2.47;2.03;;;9.20;55.10;;;;;;5014266;28;20022;-74
2021/04/29 04:19:22;;;;;;;2.28;1.90;;;9.20;55.40;;;;;;5014626;28;20101;-74
2021/04/29 04:21:48;;;;;;;3.60;2.45;;;9.00;55.70;;;;;;5014575;28;20061;-75
2021/04/29 04:24:13;;;;;;;2.53;1.98;;;8.90;56.00;;;;;;5014808;28;20033;-74
2021/04/29 04:26:39;;;;;;;2.33;1.83;;;8.80;56.30;;;;;;5014584;28;20031;-74
2021/04/29 04:29:04;;;;;;;3.25;2.25;;;8.70;56.50;;;;;;5014556;28;20022;-74
2021/04/29 04:31:30;;;;;;;6.15;4.10;;;8.70;56.70;;;;;;5029086;28;20030;-74
2021/04/29 04:33:56;;;;;;;4.32;3.28;;;8.50;57.30;;;;;;5014412;28;20033;-75
2021/04/29 04:36:21;;;;;;;7.22;4.30;;;8.30;58.10;;;;;;5014519;28;20025;-74
2021/04/29 04:38:47;;;;;;;5.65;3.75;;;8.10;58.70;;;;;;5014422;28;20428;-75
2021/04/29 04:41:12;;;;;;;4.07;2.97;;;7.90;59.40;;;;;;5014435;28;20033;-75
2021/04/29 04:43:38;;;;;;;4.18;2.45;;;7.70;60.00;;;;;;5014292;28;20036;-74
2021/04/29 04:46:03;;;;;;;2.80;1.85;;;7.60;60.50;;;;;;5029058;28;20018;-74
2021/04/29 04:48:29;;;;;;;1.50;1.17;;;7.50;60.60;;;;;;5014270;28;20443;-75
2021/04/29 04:50:54;;;;;;;3.17;1.70;;;7.50;60.50;;;;;;5018406;28;20025;-75
2021/04/29 04:53:21;;;;;;;2.70;1.70;;;7.50;60.40;;;;;;5033640;28;20032;-75
2021/04/29 04:55:49;;;;;;;2.50;1.88;;;7.50;60.50;;;;;;5033666;28;20029;-74
2021/04/29 04:58:18;;;;;;;2.55;1.83;;;7.50;60.80;;;;;;5033788;28;20032;-76
2021/04/29 05:00:44;;;;;;;1.38;1.27;;;7.60;60.80;;;;;;5033214;28;20100;-75
2021/04/29 05:03:11;;;;;;;1.67;1.33;;;7.60;60.60;;;;;;5033618;28;20026;-75
2021/04/29 05:05:40;;;;;;;2.05;1.83;;;7.70;60.60;;;;;;5033522;28;20045;-75
2021/04/29 05:08:06;;;;;;;2.70;1.93;;;7.70;60.40;;;;;;5033574;28;20104;-74
2021/04/29 05:10:33;;;;;;;3.13;2.20;;;7.70;60.40;;;;;;5033666;28;20029;-75
2021/04/29 05:13:01;;;;;;;2.05;1.70;;;7.70;60.70;;;;;;5033660;28;20021;-76
2021/04/29 05:15:27;;;;;;;2.55;2.25;;;7.70;60.80;;;;;;5033477;28;20028;-76
2021/04/29 05:17:53;;;;;;;2.90;2.05;;;7.90;60.80;;;;;;5033272;28;20026;-74
2021/04/29 05:20:18;;;;;;;2.60;1.88;;;7.90;60.80;;;;;;5033476;28;20378;-75
2021/04/29 05:22:44;;;;;;;2.22;1.70;;;7.90;60.80;;;;;;5033621;28;20116;-75
2021/04/29 05:25:10;;;;;;;3.20;1.60;;;8.00;60.80;;;;;;5033221;28;20036;-74
2021/04/29 05:27:36;;;;;;;1.83;1.33;;;8.10;60.70;;;;;;5033260;28;20028;-74
2021/04/29 05:30:01;;;;;;;1.67;1.45;;;8.20;60.50;;;;;;5032652;28;20021;-75
2021/04/29 05:32:27;;;;;;;1.85;1.67;;;8.30;60.50;;;;;;5033131;28;20025;-75
2021/04/29 05:34:52;;;;;;;1.90;1.70;;;8.30;60.60;;;;;;5033201;28;20506;-75
2021/04/29 05:37:18;;;;;;;1.70;1.55;;;8.30;60.70;;;;;;5033066;28;20018;-75
2021/04/29 05:39:44;;;;;;;1.42;1.23;;;8.40;60.70;;;;;;5033066;28;20067;-75
2021/04/29 05:42:10;;;;;;;2.55;1.85;;;8.40;60.80;;;;;;5031655;28;20028;-75
2021/04/29 05:44:35;;;;;;;2.13;1.70;;;8.40;60.90;;;;;;5031217;28;20430;-74
2021/04/29 05:47:01;;;;;;;3.10;2.05;;;8.30;61.00;;;;;;5033007;28;20021;-74
2021/04/29 05:49:27;;;;;;;2.53;2.00;;;8.30;61.30;;;;;;5033040;28;20025;-74
2021/04/29 05:51:52;;;;;;;2.58;2.10;;;8.40;61.50;;;;;;5031758;28;20120;-75
2021/04/29 05:54:18;;;;;;;2.80;1.90;;;8.40;61.40;;;;;;5032809;28;20052;-77
2021/04/29 05:56:44;;;;;;;3.67;2.45;;;8.50;61.60;;;;;;5032769;28;20042;-77
2021/04/29 05:59:09;;;;;;;2.85;2.00;;;8.50;61.70;;;;;;5032476;28;20030;-77
2021/04/29 06:01:35;;;;;;;3.70;2.88;;;8.60;61.80;;;;;;5032967;28;20028;-77
2021/04/29 06:04:01;;;;;;;7.28;4.55;;;8.60;61.90;;;;;;5032770;28;20466;-76
2021/04/29 06:06:26;;;;;;;7.10;5.13;;;8.50;62.30;;;;;;5032859;28;20032;-77
2021/04/29 06:08:52;;;;;;;8.55;6.38;;;8.40;62.80;;;;;;5033097;28;20087;-77
2021/04/29 06:11:17;;;;;;;9.93;6.82;;;8.40;63.50;;;;;;5032797;28;20389;-77
2021/04/29 06:13:44;;;;;;;8.57;6.60;;;8.40;63.90;;;;;;5032322;28;20103;-76
2021/04/29 06:16:14;;;;;;;7.47;5.43;;;8.30;64.30;;;;;;5035632;28;20024;-76
2021/04/29 06:18:41;;;;;;;7.28;5.55;;;8.30;64.50;;;;;;5036654;28;20018;-75
2021/04/29 06:21:06;;;;;;;7.85;5.63;;;8.40;64.50;;;;;;5036656;28;20036;-74
2021/04/29 06:23:33;;;;;;;6.03;4.38;;;8.40;64.50;;;;;;5036630;28;20017;-76
2021/04/29 06:26:02;;;;;;;6.35;4.65;;;8.50;64.60;;;;;;5036313;28;20033;-76
2021/04/29 06:28:28;;;;;;;7.70;5.43;;;8.50;64.60;;;;;;5035913;28;20087;-76
2021/04/29 06:30:54;;;;;;;9.93;7.75;;;8.50;64.70;;;;;;5036486;28;20086;-76
2021/04/29 06:33:23;;;;;;;9.13;6.32;;;8.50;65.30;;;;;;5036329;28;20524;-75
2021/04/29 06:35:50;;;;;;;7.93;6.20;;;8.50;65.60;;;;;;5036318;28;20017;-75
2021/04/29 06:38:15;;;;;;;9.68;5.68;;;8.50;65.70;;;;;;5034963;28;20036;-75
2021/04/29 06:40:41;;;;;;;6.57;4.70;;;8.60;65.70;;;;;;5036271;28;20029;-76
2021/04/29 06:43:06;;;;;;;5.63;4.10;;;8.70;65.60;;;;;;5035622;28;20075;-74
2021/04/29 06:45:32;;;;;;;6.55;4.78;;;8.80;65.60;;;;;;5036079;28;20029;-76
2021/04/29 06:48:00;;;;;;;6.68;4.93;;;8.80;65.70;;;;;;5036270;28;20429;-76
2021/04/29 06:50:26;;;;;;;9.55;7.55;;;8.80;65.60;;;;;;5036181;28;20501;-75
2021/04/29 06:52:51;;;;;;;7.68;5.53;;;8.80;66.40;;;;;;5020557;28;20026;-75
2021/04/29 06:55:17;;;;;;;6.93;5.18;;;8.80;66.40;;;;;;5016304;28;20042;-75
2021/04/29 06:57:42;;;;;;;6.68;4.78;;;8.90;66.40;;;;;;5030728;28;20135;-75
2021/04/29 07:00:08;;;;;;;6.28;4.38;;;9.00;66.30;;;;;;5016283;28;20028;-75
2021/04/29 07:02:34;;;;;;;6.40;4.25;;;9.00;66.30;;;;;;5016198;28;20490;-74
2021/04/29 07:04:59;;;;;;;6.70;4.40;;;9.10;66.40;;;;;;5012537;28;20120;-73
2021/04/29 07:07:25;;;;;;;6.63;4.55;;;9.10;66.40;;;;;;5015769;28;20018;-74
2021/04/29 07:09:50;;;;;;;7.60;5.45;;;9.10;66.60;;;;;;5015791;28;20052;-74
2021/04/29 07:12:16;;;;;;;6.75;5.05;;;9.10;66.60;;;;;;5013722;28;20471;-74
2021/04/29 07:14:41;;;;;;;6.10;4.43;;;9.10;66.70;;;;;;5012650;28;20364;-74
2021/04/29 07:17:07;;;;;;;5.35;4.30;;;9.10;66.70;;;;;;5015580;28;20510;-74
2021/04/29 07:19:33;;;;;;;9.07;5.10;;;9.20;66.80;;;;;;5015558;28;20030;-74
2021/04/29 07:21:58;;;;;;;6.40;4.80;;;9.30;66.80;;;;;;5015794;28;20025;-75
2021/04/29 07:24:24;;;;;;;6.30;4.13;;;9.30;66.90;;;;;;5015611;28;20069;-75
2021/04/29 07:26:50;;;;;;;5.78;4.10;;;9.30;66.90;;;;;;5013908;28;20022;-74
2021/04/29 07:29:15;;;;;;;4.22;3.58;;;9.40;66.80;;;;;;5015411;28;20034;-76
2021/04/29 07:31:41;;;;;;;3.97;3.08;;;9.40;66.80;;;;;;5023715;28;20026;-74
2021/04/29 07:34:07;;;;;;;5.55;3.50;;;9.50;66.70;;;;;;5017082;28;20041;-75
2021/04/29 07:36:33;;;;;;;4.55;3.42;;;9.60;66.60;;;;;;5015127;28;20029;-75
2021/04/29 07:38:59;;;;;;;3.85;3.30;;;9.70;66.50;;;;;;5015558;28;20179;-74
2021/04/29 07:41:26;;;;;;;4.63;3.10;;;9.80;66.30;;;;;;5014909;28;20029;-75
2021/04/29 07:43:52;;;;;;;4.70;2.97;;;9.80;66.40;;;;;;5015251;28;20382;-75
2021/04/29 07:46:18;;;;;;;4.07;3.25;;;9.90;66.30;;;;;;5015156;28;20029;-76
2021/04/29 07:48:44;;;;;;;3.30;2.40;;;9.90;66.30;;;;;;5015089;28;20022;-75
2021/04/29 07:51:09;;;;;;;2.67;2.03;;;10.00;67.00;;;;;;5014363;28;20049;-74
2021/04/29 07:53:35;;;;;;;2.95;2.35;;;10.10;66.30;;;;;;5015012;28;20037;-75
2021/04/29 07:56:01;;;;;;;2.35;1.98;;;10.20;66.10;;;;;;5014360;28;20393;-75
2021/04/29 07:58:26;;;;;;;3.47;1.95;;;10.30;66.50;;;;;;5014998;28;20022;-76
2021/04/29 08:00:52;;;;;;;2.88;2.55;;;10.30;65.80;;;;;;5014868;28;20033;-76
2021/04/29 08:03:18;;;;;;;2.08;1.70;;;10.30;65.80;;;;;;5014823;28;20032;-76
2021/04/29 08:05:44;;;;;;;2.28;1.83;;;10.20;65.90;;;;;;5014826;28;20434;-76
2021/04/29 08:08:09;;;;;;;2.97;2.58;;;10.20;66.10;;;;;;5014693;28;20026;-75
2021/04/29 08:10:39;;;;;;;3.00;1.70;;;10.20;66.20;;;;;;5014154;28;20022;-77
2021/04/29 08:13:04;;;;;;;;;;;10.20;66.10;;;;;;5015152;28;20022;-75
2021/04/29 08:15:30;;;;;;;1.67;1.55;;;10.10;65.90;;;;;;5014793;28;19928;-75
2021/04/29 08:17:55;;;;;;;2.08;1.70;;;10.20;66.10;;;;;;5014570;28;20033;-75
2021/04/29 08:20:21;;;;;;;2.10;1.90;;;10.20;65.90;;;;;;5014509;28;20033;-75
2021/04/29 08:22:46;;;;;;;1.98;1.60;;;10.30;65.90;;;;;;5014481;28;20123;-75
2021/04/29 08:25:12;;;;;;;2.38;2.17;;;10.30;65.80;;;;;;5013941;28;20029;-76
2021/04/29 08:27:40;;;;;;;2.75;1.88;;;10.40;65.80;;;;;;5014675;28;20030;-77
2021/04/29 08:30:06;;;;;;;2.33;1.90;;;10.40;65.70;;;;;;5014314;28;20054;-77
2021/04/29 08:32:32;;;;;;;1.95;1.80;;;10.40;65.70;;;;;;5029580;28;20033;-77
2021/04/29 08:34:57;;;;;;;1.52;1.42;;;10.40;65.60;;;;;;5014247;28;20021;-76
2021/04/29 08:37:23;;;;;;;2.30;1.58;;;10.40;65.70;;;;;;5013595;28;20022;-77
2021/04/29 08:39:48;;;;;;;2.22;1.80;;;10.40;65.80;;;;;;5029320;28;20030;-75
2021/04/29 08:42:15;;;;;;;2.35;2.05;;;10.40;65.80;;;;;;5012825;28;20021;-76
2021/04/29 08:44:42;;;;;;;3.28;1.88;;;10.30;65.80;;;;;;5013940;28;20065;-76
2021/04/29 08:47:07;;;;;;;1.85;1.70;;;10.30;65.90;;;;;;5014006;28;20402;-74
2021/04/29 08:49:34;;;;;;;2.03;1.63;;;10.30;66.00;;;;;;5010718;28;20036;-74
2021/04/29 08:51:59;;;;;;;1.98;1.75;;;10.30;66.00;;;;;;5007968;28;20478;-76
2021/04/29 08:54:25;;;;;;;2.63;2.13;;;10.40;65.90;;;;;;5013826;28;20072;-77
2021/04/29 08:56:52;;;;;;;2.42;2.03;;;10.40;65.80;;;;;;5013524;28;20065;-76
2021/04/29 08:59:18;;;;;;;2.83;1.90;;;10.50;65.70;;;;;;5013929;28;20083;-75
2021/04/29 09:01:45;;;;;;;3.17;2.03;;;10.60;65.60;;;;;;5013589;28;20487;-76
2021/04/29 09:04:18;;;;;;;3.10;2.15;;;10.60;65.50;;;;;;5013792;28;20034;-75
2021/04/29 09:06:45;;;;;;;1.70;1.60;;;10.60;65.60;;;;;;5013330;28;20479;-76
2021/04/29 09:09:16;;;;;;;2.55;2.33;;;10.60;65.60;;;;;;5013777;28;20030;-75
2021/04/29 09:11:51;;;;;;;3.17;2.80;;;10.70;65.70;;;;;;5013426;28;20030;-76
2021/04/29 09:14:32;;;;;;;1.60;1.50;;;10.70;65.60;;;;;;5013575;28;20034;-76
2021/04/29 09:16:58;;;;;;;3.30;2.58;;;10.70;65.60;;;;;;5013681;28;20026;-76
2021/04/29 09:19:28;;;;;;;5.95;2.67;;;10.70;65.60;;;;;;5013524;28;20022;-75
2021/04/29 09:21:55;;;;;;;2.90;2.40;;;10.60;65.80;;;;;;5013226;28;20493;-75
2021/04/29 09:24:35;;;;;;;2.65;2.25;;;10.60;65.90;;;;;;5013195;28;20556;-76
2021/04/29 09:27:07;;;;;;;;;;;10.60;66.00;;;;;;5014013;28;20022;-75
2021/04/29 09:29:33;;;;;;;2.33;1.83;;;10.50;65.70;;;;;;5013576;28;19913;-76
2021/04/29 09:31:58;;;;;;;2.30;2.10;;;10.40;66.10;;;;;;5013140;28;20413;-76
2021/04/29 09:34:25;;;;;;;2.65;2.00;;;10.40;66.20;;;;;;5013226;28;20014;-75
2021/04/29 09:36:51;;;;;;;3.45;2.17;;;10.40;66.30;;;;;;5013014;28;20030;-76
2021/04/29 09:39:18;;;;;;;3.25;2.50;;;10.30;66.30;;;;;;5012126;28;20052;-75
2021/04/29 09:41:51;;;;;;;3.33;2.15;;;10.30;66.50;;;;;;5011695;28;20065;-76
2021/04/29 09:44:22;;;;;;;3.33;2.63;;;10.30;66.60;;;;;;5013064;28;20482;-75
2021/04/29 09:46:51;;;;;;;2.88;1.95;;;10.20;66.60;;;;;;5012134;28;20033;-75
2021/04/29 09:49:22;;;;;;;2.95;2.50;;;10.20;66.80;;;;;;5013018;28;20029;-76
2021/04/29 09:51:48;;;;;;;4.38;2.65;;;10.20;66.80;;;;;;5007698;28;20113;-75
2021/04/29 09:54:30;;;;;;;3.38;2.50;;;10.20;66.70;;;;;;5013296;28;20537;-75
2021/04/29 09:57:07;;;;;;;2.50;1.90;;;10.30;66.80;;;;;;5013197;28;20093;-75
2021/04/29 09:59:35;;;;;;;2.60;2.08;;;10.30;67.30;;;;;;5013374;28;20025;-77
2021/04/29 10:02:01;;;;;;;2.88;2.13;;;10.30;66.60;;;;;;5012945;28;20028;-77
2021/04/29 10:04:30;;;;;;;2.92;1.90;;;10.30;66.60;;;;;;5010280;28;20061;-75
2021/04/29 10:06:59;;;;;;;2.70;2.33;;;10.30;66.60;;;;;;5013013;28;20030;-77
2021/04/29 10:09:28;;;;;;;2.27;2.07;;;10.30;66.70;;;;;;5011841;28;20018;-80
2021/04/29 10:12:02;;;;;;;3.20;2.88;;;10.30;66.70;;;;;;5013241;28;20261;-79
2021/04/29 10:14:35;;;;;;;2.92;1.90;;;10.30;66.90;;;;;;5012941;28;20029;-82
2021/04/29 10:17:06;;;;;;;2.80;2.10;;;10.30;66.80;;;;;;5012758;28;20502;-77
2021/04/29 10:19:35;;;;;;;3.40;2.50;;;10.30;66.80;;;;;;5012084;28;20100;-75
2021/04/29 10:22:01;;;;;;;4.03;2.88;;;10.30;66.80;;;;;;5013085;28;20483;-75
2021/04/29 10:24:27;;;;;;;3.83;2.70;;;10.30;66.90;;;;;;5012800;28;20037;-75
2021/04/29 10:27:06;;;;;;;2.72;2.45;;;10.30;67.00;;;;;;5012575;28;20478;-76
2021/04/29 10:29:33;;;;;;;2.35;2.03;;;10.20;67.10;;;;;;5012945;28;20091;-75
2021/04/29 10:32:00;;;;;;;2.20;2.00;;;10.10;67.30;;;;;;5023805;28;20030;-78
2021/04/29 10:34:44;;;;;;;2.30;2.03;;;10.20;67.40;;;;;;5031785;28;20489;-77
2021/04/29 10:37:19;;;;;;;3.38;2.70;;;10.10;67.40;;;;;;5026843;28;20018;-76
2021/04/29 10:39:53;;;;;;;3.08;2.10;;;10.10;67.60;;;;;;4998998;28;20030;-77
2021/04/29 10:42:20;;;;;;;3.33;2.50;;;10.00;67.70;;;;;;5012530;28;20025;-76
2021/04/29 10:44:51;;;;;;;3.72;2.90;;;9.90;67.90;;;;;;5012520;28;20038;-77
2021/04/29 10:47:31;;;;;;;3.75;2.75;;;9.90;68.20;;;;;;5006286;28;20104;-78
2021/04/29 10:50:11;;;;;;;4.15;2.70;;;9.70;68.50;;;;;;4992626;28;20027;-76
2021/04/29 10:52:51;;;;;;;2.47;2.25;;;9.60;68.80;;;;;;5007665;28;20041;-76
2021/04/29 10:55:36;;;;;;;4.10;2.78;;;9.60;69.10;;;;;;5012218;28;20025;-76
2021/04/29 10:58:02;;;;;;;3.50;2.17;;;9.60;69.00;;;;;;5002293;28;20042;-75
2021/04/29 11:00:29;;;;;;;2.38;1.92;;;9.60;68.90;;;;;;5012512;28;20022;-75
2021/04/29 11:03:05;;;;;;;3.03;2.45;;;9.70;68.90;;;;;;5001175;28;20105;-75
2021/04/29 11:05:33;;;;;;;2.60;2.10;;;9.80;68.80;;;;;;5015833;28;20034;-75
2021/04/29 11:08:05;;;;;;;2.60;1.85;;;9.80;68.80;;;;;;5016052;28;20026;-75
2021/04/29 11:10:33;;;;;;;3.20;2.58;;;9.70;68.90;;;;;;5014681;28;20057;-75
2021/04/29 11:13:00;;;;;;;3.90;2.95;;;9.60;69.20;;;;;;5015644;28;20088;-75
2021/04/29 11:15:37;;;;;;;3.63;2.65;;;9.40;69.50;;;;;;5015606;28;20026;-76
2021/04/29 11:18:11;;;;;;;4.82;3.13;;;9.30;69.90;;;;;;5012783;28;20041;-77
2021/04/29 11:20:52;;;;;;;4.00;2.78;;;9.30;69.90;;;;;;5012612;28;20030;-77
2021/04/29 11:23:36;;;;;;;3.92;2.92;;;9.50;69.80;;;;;;4997136;28;20497;-76
2021/04/29 11:26:16;;;;;;;3.38;2.50;;;9.50;69.70;;;;;;4996121;28;20051;-76
2021/04/29 11:28:42;;;;;;;3.75;3.40;;;9.50;69.70;;;;;;4996009;28;20483;-76
2021/04/29 11:31:08;;;;;;;4.47;3.15;;;9.40;69.90;;;;;;4995863;28;20049;-75
2021/04/29 11:33:36;;;;;;;4.47;3.88;;;9.30;70.20;;;;;;5009910;28;20026;-76
2021/04/29 11:36:14;;;;;;;4.60;3.13;;;9.10;70.60;;;;;;5014977;28;20092;-76
2021/04/29 11:38:47;;;;;;;3.60;2.72;;;9.00;71.00;;;;;;5002706;28;20440;-75
2021/04/29 11:41:12;;;;;;;5.00;3.47;;;9.00;71.00;;;;;;5015215;28;20087;-75
2021/04/29 11:43:38;;;;;;;6.03;3.95;;;9.00;71.10;;;;;;5016018;28;20109;-76
2021/04/29 11:46:03;;;;;;;4.63;3.50;;;8.80;71.40;;;;;;5014580;28;20042;-76
2021/04/29 11:48:32;;;;;;;4.55;3.92;;;8.70;71.60;;;;;;5014873;28;20026;-76
2021/04/29 11:50:58;;;;;;;4.30;3.42;;;8.80;71.60;;;;;;5015156;28;20498;-80
2021/04/29 11:53:29;;;;;;;2.95;2.65;;;8.80;71.40;;;;;;5015037;28;20145;-74
2021/04/29 11:56:00;;;;;;;3.85;2.53;;;8.90;71.30;;;;;;5013630;28;20109;-77
2021/04/29 11:58:25;;;;;;;2.83;2.30;;;9.00;71.70;;;;;;5014888;28;20044;-78
2021/04/29 12:00:53;;;;;;;2.67;2.25;;;9.10;70.80;;;;;;5013368;28;20034;-78
2021/04/29 12:03:20;;;;;;;2.30;1.70;;;9.10;70.80;;;;;;5006783;28;20041;-78
2021/04/29 12:05:49;;;;;;;5.30;3.28;;;9.20;70.70;;;;;;5010771;28;20048;-78
2021/04/29 12:08:23;;;;;;;2.30;2.10;;;9.20;70.60;;;;;;5010473;28;20026;-78
2021/04/29 12:10:57;;;;;;;3.72;2.55;;;9.20;70.70;;;;;;5008101;28;20045;-78
2021/04/29 12:13:36;;;;;;;3.13;2.78;;;9.20;70.90;;;;;;5011203;28;20029;-76
2021/04/29 12:16:04;;;;;;;3.75;2.65;;;9.10;71.60;;;;;;5004334;28;20034;-77
2021/04/29 12:18:30;;;;;;;2.17;1.90;;;9.00;71.00;;;;;;4994833;28;20025;-79
2021/04/29 12:20:57;;;;;;;3.45;2.88;;;8.90;71.20;;;;;;5006732;28;20030;-77
2021/04/29 12:23:23;;;;;;;5.22;3.25;;;8.90;71.20;;;;;;5029700;28;20045;-79
2021/04/29 12:25:58;;;;;;;3.65;2.40;;;8.70;71.50;;;;;;5027922;28;20382;-78
2021/04/29 12:28:30;;;;;;;3.88;2.80;;;8.70;71.70;;;;;;5014432;28;20533;-77
2021/04/29 12:30:56;;;;;;;3.30;2.80;;;8.70;71.60;;;;;;5012943;28;20056;-79
2021/04/29 12:33:21;;;;;;;3.65;2.63;;;8.70;71.70;;;;;;5014322;28;20092;-77
2021/04/29 12:35:47;;;;;;;3.03;2.15;;;8.60;71.60;;;;;;5014465;28;20033;-78
2021/04/29 12:38:14;;;;;;;3.03;2.38;;;8.60;71.70;;;;;;5014243;28;20014;-75
2021/04/29 12:40:40;;;;;;;2.80;2.38;;;8.60;71.50;;;;;;5013991;28;20526;-77
2021/04/29 12:43:22;;;;;;;3.63;2.40;;;8.60;71.50;;;;;;5014348;28;20052;-77
2021/04/29 12:45:56;;;;;;;3.35;2.40;;;8.70;71.60;;;;;;5013462;28;20038;-78
2021/04/29 12:48:33;;;;;;;2.55;2.17;;;8.70;71.40;;;;;;5014290;28;20022;-77
2021/04/29 12:51:02;;;;;;;2.75;2.25;;;8.80;71.20;;;;;;5014048;28;20030;-78
2021/04/29 12:53:28;;;;;;;4.50;3.20;;;8.80;71.00;;;;;;5013992;28;20034;-77
2021/04/29 12:55:53;;;;;;;4.85;3.88;;;8.80;71.10;;;;;;5014188;28;20021;-78
2021/04/29 12:58:31;;;;;;;5.07;3.22;;;8.60;71.60;;;;;;5013245;28;20402;-81